sensor_id;sensor_type;location;lat;lon;timestamp;P1;durP1;ratioP1;P2;durP2;ratioP2
69779;SDS011;57052;55.602;38.096;2024-01-06T00:01:39;5.30;;;2.47;;
69779;SDS011;57052;55.602;38.096;2024-01-06T00:04:04;11.83;;;3.00;;
69779;SDS011;57052;55.602;38.096;2024-01-06T00:06:30;5.20;;;3.17;;
69779;SDS011;57052;55.602;38.096;2024-01-06T00:08:56;6.77;;;2.73;;
69779;SDS011;57052;55.602;38.096;2024-01-06T00:11:21;8.30;;;2.50;;
69779;SDS011;57052;55.602;38.096;2024-01-06T00:13:47;6.67;;;3.50;;
69779;SDS011;57052;55.602;38.096;2024-01-06T00:16:16;6.10;;;2.33;;
69779;SDS011;57052;55.602;38.096;2024-01-06T00:18:44;5.40;;;2.70;;
69779;SDS011;57052;55.602;38.096;2024-01-06T00:21:10;5.10;;;2.70;;
69779;SDS011;57052;55.602;38.096;2024-01-06T00:23:36;5.40;;;1.90;;
69779;SDS011;57052;55.602;38.096;2024-01-06T00:26:01;4.50;;;2.37;;
69779;SDS011;57052;55.602;38.096;2024-01-06T00:28:27;5.00;;;1.93;;
69779;SDS011;57052;55.602;38.096;2024-01-06T00:30:53;6.70;;;2.03;;
69779;SDS011;57052;55.602;38.096;2024-01-06T00:33:19;4.80;;;2.17;;
69779;SDS011;57052;55.602;38.096;2024-01-06T00:35:45;20.33;;;3.03;;
69779;SDS011;57052;55.602;38.096;2024-01-06T00:38:11;3.73;;;2.27;;
69779;SDS011;57052;55.602;38.096;2024-01-06T00:40:37;6.80;;;3.23;;
69779;SDS011;57052;55.602;38.096;2024-01-06T00:43:03;5.37;;;2.70;;
69779;SDS011;57052;55.602;38.096;2024-01-06T00:45:28;5.90;;;3.13;;
69779;SDS011;57052;55.602;38.096;2024-01-06T00:47:56;7.97;;;3.20;;
69779;SDS011;57052;55.602;38.096;2024-01-06T00:50:21;9.07;;;3.37;;
69779;SDS011;57052;55.602;38.096;2024-01-06T00:52:47;5.23;;;2.33;;
69779;SDS011;57052;55.602;38.096;2024-01-06T00:55:13;7.47;;;3.13;;
69779;SDS011;57052;55.602;38.096;2024-01-06T00:57:39;8.73;;;3.43;;
69779;SDS011;57052;55.602;38.096;2024-01-06T01:00:05;9.20;;;3.87;;
69779;SDS011;57052;55.602;38.096;2024-01-06T01:02:31;7.53;;;2.67;;
69779;SDS011;57052;55.602;38.096;2024-01-06T01:04:57;10.57;;;3.53;;
69779;SDS011;57052;55.602;38.096;2024-01-06T01:07:23;6.87;;;3.00;;
69779;SDS011;57052;55.602;38.096;2024-01-06T01:09:49;7.63;;;3.00;;
69779;SDS011;57052;55.602;38.096;2024-01-06T01:12:15;9.37;;;3.20;;
69779;SDS011;57052;55.602;38.096;2024-01-06T01:14:41;7.67;;;3.27;;
69779;SDS011;57052;55.602;38.096;2024-01-06T01:17:06;11.57;;;4.40;;
69779;SDS011;57052;55.602;38.096;2024-01-06T01:19:32;5.53;;;2.93;;
69779;SDS011;57052;55.602;38.096;2024-01-06T01:21:58;8.27;;;3.50;;
69779;SDS011;57052;55.602;38.096;2024-01-06T01:24:23;10.70;;;2.93;;
69779;SDS011;57052;55.602;38.096;2024-01-06T01:26:49;7.53;;;3.13;;
69779;SDS011;57052;55.602;38.096;2024-01-06T01:29:18;5.90;;;2.97;;
69779;SDS011;57052;55.602;38.096;2024-01-06T01:31:46;6.90;;;3.33;;
69779;SDS011;57052;55.602;38.096;2024-01-06T01:34:12;6.80;;;3.57;;
69779;SDS011;57052;55.602;38.096;2024-01-06T01:36:38;10.50;;;3.83;;
69779;SDS011;57052;55.602;38.096;2024-01-06T01:39:04;11.17;;;3.80;;
69779;SDS011;57052;55.602;38.096;2024-01-06T01:41:30;10.67;;;3.70;;
69779;SDS011;57052;55.602;38.096;2024-01-06T01:43:56;8.90;;;3.60;;
69779;SDS011;57052;55.602;38.096;2024-01-06T01:46:28;9.67;;;3.83;;
69779;SDS011;57052;55.602;38.096;2024-01-06T01:48:58;7.80;;;2.97;;
69779;SDS011;57052;55.602;38.096;2024-01-06T01:51:32;12.93;;;4.20;;
69779;SDS011;57052;55.602;38.096;2024-01-06T01:54:03;15.77;;;3.73;;
69779;SDS011;57052;55.602;38.096;2024-01-06T01:56:31;8.57;;;3.00;;
69779;SDS011;57052;55.602;38.096;2024-01-06T01:59:13;8.63;;;3.90;;
69779;SDS011;57052;55.602;38.096;2024-01-06T02:01:39;9.77;;;3.03;;
69779;SDS011;57052;55.602;38.096;2024-01-06T02:04:06;8.77;;;3.67;;
69779;SDS011;57052;55.602;38.096;2024-01-06T02:06:32;9.40;;;4.13;;
69779;SDS011;57052;55.602;38.096;2024-01-06T02:08:57;8.33;;;3.20;;
69779;SDS011;57052;55.602;38.096;2024-01-06T02:11:23;5.63;;;2.77;;
69779;SDS011;57052;55.602;38.096;2024-01-06T02:13:49;7.73;;;3.10;;
69779;SDS011;57052;55.602;38.096;2024-01-06T02:16:15;14.97;;;3.40;;
69779;SDS011;57052;55.602;38.096;2024-01-06T02:18:41;12.63;;;3.87;;
69779;SDS011;57052;55.602;38.096;2024-01-06T02:21:07;10.87;;;3.33;;
69779;SDS011;57052;55.602;38.096;2024-01-06T02:23:34;4.83;;;3.30;;
69779;SDS011;57052;55.602;38.096;2024-01-06T02:26:01;7.53;;;3.43;;
69779;SDS011;57052;55.602;38.096;2024-01-06T02:28:27;8.47;;;3.70;;
69779;SDS011;57052;55.602;38.096;2024-01-06T02:30:53;5.37;;;2.97;;
69779;SDS011;57052;55.602;38.096;2024-01-06T02:33:19;7.80;;;3.37;;
69779;SDS011;57052;55.602;38.096;2024-01-06T02:35:45;5.40;;;3.40;;
69779;SDS011;57052;55.602;38.096;2024-01-06T02:38:11;9.43;;;3.17;;
69779;SDS011;57052;55.602;38.096;2024-01-06T02:40:37;7.53;;;3.27;;
69779;SDS011;57052;55.602;38.096;2024-01-06T02:43:03;7.37;;;2.83;;
69779;SDS011;57052;55.602;38.096;2024-01-06T02:45:29;11.57;;;3.63;;
69779;SDS011;57052;55.602;38.096;2024-01-06T02:47:55;11.20;;;3.27;;
69779;SDS011;57052;55.602;38.096;2024-01-06T02:50:20;8.03;;;3.33;;
69779;SDS011;57052;55.602;38.096;2024-01-06T02:52:46;12.13;;;4.00;;
69779;SDS011;57052;55.602;38.096;2024-01-06T02:55:12;10.87;;;3.50;;
69779;SDS011;57052;55.602;38.096;2024-01-06T02:57:38;8.87;;;3.30;;
69779;SDS011;57052;55.602;38.096;2024-01-06T03:00:04;8.40;;;3.33;;
69779;SDS011;57052;55.602;38.096;2024-01-06T03:02:30;9.20;;;3.57;;
69779;SDS011;57052;55.602;38.096;2024-01-06T03:04:56;8.83;;;3.63;;
69779;SDS011;57052;55.602;38.096;2024-01-06T03:07:22;11.77;;;4.30;;
69779;SDS011;57052;55.602;38.096;2024-01-06T03:09:48;14.50;;;4.03;;
69779;SDS011;57052;55.602;38.096;2024-01-06T03:12:13;7.53;;;3.23;;
69779;SDS011;57052;55.602;38.096;2024-01-06T03:14:39;5.70;;;3.17;;
69779;SDS011;57052;55.602;38.096;2024-01-06T03:17:05;8.37;;;3.53;;
69779;SDS011;57052;55.602;38.096;2024-01-06T03:19:30;11.67;;;4.03;;
69779;SDS011;57052;55.602;38.096;2024-01-06T03:21:56;7.67;;;4.20;;
69779;SDS011;57052;55.602;38.096;2024-01-06T03:24:22;6.57;;;2.93;;
69779;SDS011;57052;55.602;38.096;2024-01-06T03:26:49;13.90;;;3.50;;
69779;SDS011;57052;55.602;38.096;2024-01-06T03:29:15;7.97;;;3.33;;
69779;SDS011;57052;55.602;38.096;2024-01-06T03:31:42;8.90;;;3.43;;
69779;SDS011;57052;55.602;38.096;2024-01-06T03:34:08;8.17;;;2.90;;
69779;SDS011;57052;55.602;38.096;2024-01-06T03:36:35;5.90;;;2.90;;
69779;SDS011;57052;55.602;38.096;2024-01-06T03:39:01;12.30;;;3.30;;
69779;SDS011;57052;55.602;38.096;2024-01-06T03:41:27;7.40;;;3.40;;
69779;SDS011;57052;55.602;38.096;2024-01-06T03:43:53;13.03;;;3.50;;
69779;SDS011;57052;55.602;38.096;2024-01-06T03:46:18;6.32;;;2.67;;
69779;SDS011;57052;55.602;38.096;2024-01-06T03:48:44;15.03;;;3.50;;
69779;SDS011;57052;55.602;38.096;2024-01-06T03:51:10;8.00;;;3.60;;
69779;SDS011;57052;55.602;38.096;2024-01-06T03:53:37;10.57;;;3.37;;
69779;SDS011;57052;55.602;38.096;2024-01-06T03:56:03;7.57;;;2.73;;
69779;SDS011;57052;55.602;38.096;2024-01-06T03:58:29;5.93;;;2.73;;
69779;SDS011;57052;55.602;38.096;2024-01-06T04:00:55;9.93;;;3.20;;
69779;SDS011;57052;55.602;38.096;2024-01-06T04:03:21;5.90;;;2.57;;
69779;SDS011;57052;55.602;38.096;2024-01-06T04:05:46;8.87;;;3.57;;
69779;SDS011;57052;55.602;38.096;2024-01-06T04:08:12;9.23;;;3.47;;
69779;SDS011;57052;55.602;38.096;2024-01-06T04:10:38;10.33;;;3.40;;
69779;SDS011;57052;55.602;38.096;2024-01-06T04:13:05;10.97;;;3.00;;
69779;SDS011;57052;55.602;38.096;2024-01-06T04:15:30;9.43;;;3.40;;
69779;SDS011;57052;55.602;38.096;2024-01-06T04:17:56;5.57;;;3.03;;
69779;SDS011;57052;55.602;38.096;2024-01-06T04:20:26;7.07;;;3.20;;
69779;SDS011;57052;55.602;38.096;2024-01-06T04:22:52;6.23;;;2.63;;
69779;SDS011;57052;55.602;38.096;2024-01-06T04:25:18;7.57;;;3.20;;
69779;SDS011;57052;55.602;38.096;2024-01-06T04:27:43;7.47;;;2.87;;
69779;SDS011;57052;55.602;38.096;2024-01-06T04:30:11;9.00;;;3.30;;
69779;SDS011;57052;55.602;38.096;2024-01-06T04:32:38;7.67;;;3.27;;
69779;SDS011;57052;55.602;38.096;2024-01-06T04:35:04;4.83;;;2.93;;
69779;SDS011;57052;55.602;38.096;2024-01-06T04:37:30;7.53;;;2.80;;
69779;SDS011;57052;55.602;38.096;2024-01-06T04:39:56;7.80;;;2.93;;
69779;SDS011;57052;55.602;38.096;2024-01-06T04:42:22;6.97;;;3.43;;
69779;SDS011;57052;55.602;38.096;2024-01-06T04:44:49;4.73;;;2.33;;
69779;SDS011;57052;55.602;38.096;2024-01-06T04:47:15;11.85;;;3.58;;
69779;SDS011;57052;55.602;38.096;2024-01-06T04:49:41;7.13;;;3.00;;
69779;SDS011;57052;55.602;38.096;2024-01-06T04:52:07;8.13;;;3.73;;
69779;SDS011;57052;55.602;38.096;2024-01-06T04:54:32;5.63;;;2.87;;
69779;SDS011;57052;55.602;38.096;2024-01-06T04:56:58;8.67;;;2.53;;
69779;SDS011;57052;55.602;38.096;2024-01-06T04:59:24;9.70;;;3.33;;
69779;SDS011;57052;55.602;38.096;2024-01-06T05:01:51;7.77;;;2.40;;
69779;SDS011;57052;55.602;38.096;2024-01-06T05:04:17;7.93;;;3.07;;
69779;SDS011;57052;55.602;38.096;2024-01-06T05:06:43;4.60;;;2.63;;
69779;SDS011;57052;55.602;38.096;2024-01-06T05:09:09;5.57;;;2.97;;
69779;SDS011;57052;55.602;38.096;2024-01-06T05:11:35;8.63;;;3.03;;
69779;SDS011;57052;55.602;38.096;2024-01-06T05:14:01;8.77;;;3.17;;
69779;SDS011;57052;55.602;38.096;2024-01-06T05:16:26;7.43;;;2.70;;
69779;SDS011;57052;55.602;38.096;2024-01-06T05:18:53;10.00;;;2.33;;
69779;SDS011;57052;55.602;38.096;2024-01-06T05:21:19;6.13;;;2.70;;
69779;SDS011;57052;55.602;38.096;2024-01-06T05:23:45;13.17;;;2.87;;
69779;SDS011;57052;55.602;38.096;2024-01-06T05:26:11;5.73;;;2.63;;
69779;SDS011;57052;55.602;38.096;2024-01-06T05:28:39;6.30;;;3.40;;
69779;SDS011;57052;55.602;38.096;2024-01-06T05:31:05;7.87;;;3.60;;
69779;SDS011;57052;55.602;38.096;2024-01-06T05:33:31;3.43;;;2.53;;
69779;SDS011;57052;55.602;38.096;2024-01-06T05:35:57;10.40;;;2.23;;
69779;SDS011;57052;55.602;38.096;2024-01-06T05:38:23;6.43;;;3.53;;
69779;SDS011;57052;55.602;38.096;2024-01-06T05:40:49;7.70;;;2.57;;
69779;SDS011;57052;55.602;38.096;2024-01-06T05:43:14;8.80;;;2.80;;
69779;SDS011;57052;55.602;38.096;2024-01-06T05:45:40;9.07;;;2.57;;
69779;SDS011;57052;55.602;38.096;2024-01-06T05:48:09;5.80;;;2.07;;
69779;SDS011;57052;55.602;38.096;2024-01-06T05:50:36;7.53;;;3.40;;
69779;SDS011;57052;55.602;38.096;2024-01-06T05:53:03;11.37;;;3.50;;
69779;SDS011;57052;55.602;38.096;2024-01-06T05:55:28;9.00;;;3.07;;
69779;SDS011;57052;55.602;38.096;2024-01-06T05:57:54;13.90;;;2.77;;
69779;SDS011;57052;55.602;38.096;2024-01-06T06:00:20;8.03;;;3.60;;
69779;SDS011;57052;55.602;38.096;2024-01-06T06:02:46;8.27;;;3.27;;
69779;SDS011;57052;55.602;38.096;2024-01-06T06:05:11;4.63;;;2.90;;
69779;SDS011;57052;55.602;38.096;2024-01-06T06:07:38;7.07;;;2.23;;
69779;SDS011;57052;55.602;38.096;2024-01-06T06:10:10;6.03;;;2.83;;
69779;SDS011;57052;55.602;38.096;2024-01-06T06:12:37;5.53;;;2.10;;
69779;SDS011;57052;55.602;38.096;2024-01-06T06:15:04;7.50;;;3.13;;
69779;SDS011;57052;55.602;38.096;2024-01-06T06:17:30;6.00;;;2.53;;
69779;SDS011;57052;55.602;38.096;2024-01-06T06:19:57;5.90;;;2.80;;
69779;SDS011;57052;55.602;38.096;2024-01-06T06:22:24;8.83;;;3.20;;
69779;SDS011;57052;55.602;38.096;2024-01-06T06:24:52;7.43;;;2.53;;
69779;SDS011;57052;55.602;38.096;2024-01-06T06:27:18;6.53;;;2.77;;
69779;SDS011;57052;55.602;38.096;2024-01-06T06:29:43;9.37;;;2.63;;
69779;SDS011;57052;55.602;38.096;2024-01-06T06:32:09;10.63;;;2.83;;
69779;SDS011;57052;55.602;38.096;2024-01-06T06:34:35;6.70;;;3.07;;
69779;SDS011;57052;55.602;38.096;2024-01-06T06:37:00;5.10;;;2.33;;
69779;SDS011;57052;55.602;38.096;2024-01-06T06:39:26;7.40;;;2.70;;
69779;SDS011;57052;55.602;38.096;2024-01-06T06:41:52;9.33;;;3.30;;
69779;SDS011;57052;55.602;38.096;2024-01-06T06:44:18;9.27;;;2.70;;
69779;SDS011;57052;55.602;38.096;2024-01-06T06:46:44;8.07;;;3.17;;
69779;SDS011;57052;55.602;38.096;2024-01-06T06:49:09;5.20;;;2.67;;
69779;SDS011;57052;55.602;38.096;2024-01-06T06:51:35;7.80;;;2.80;;
69779;SDS011;57052;55.602;38.096;2024-01-06T06:54:01;6.77;;;2.30;;
69779;SDS011;57052;55.602;38.096;2024-01-06T06:56:27;4.47;;;2.28;;
69779;SDS011;57052;55.602;38.096;2024-01-06T06:58:52;8.40;;;2.33;;
69779;SDS011;57052;55.602;38.096;2024-01-06T07:01:18;8.07;;;3.17;;
69779;SDS011;57052;55.602;38.096;2024-01-06T07:03:44;11.07;;;3.73;;
69779;SDS011;57052;55.602;38.096;2024-01-06T07:06:13;6.03;;;2.53;;
69779;SDS011;57052;55.602;38.096;2024-01-06T07:08:39;13.17;;;2.87;;
69779;SDS011;57052;55.602;38.096;2024-01-06T07:11:07;7.40;;;2.97;;
69779;SDS011;57052;55.602;38.096;2024-01-06T07:13:33;7.50;;;2.67;;
69779;SDS011;57052;55.602;38.096;2024-01-06T07:15:59;9.20;;;3.13;;
69779;SDS011;57052;55.602;38.096;2024-01-06T07:18:25;9.03;;;3.27;;
69779;SDS011;57052;55.602;38.096;2024-01-06T07:20:51;6.17;;;2.73;;
69779;SDS011;57052;55.602;38.096;2024-01-06T07:23:17;9.60;;;2.90;;
69779;SDS011;57052;55.602;38.096;2024-01-06T07:25:42;7.67;;;3.17;;
69779;SDS011;57052;55.602;38.096;2024-01-06T07:28:08;8.23;;;3.60;;
69779;SDS011;57052;55.602;38.096;2024-01-06T07:30:34;7.80;;;3.13;;
69779;SDS011;57052;55.602;38.096;2024-01-06T07:33:00;9.63;;;3.33;;
69779;SDS011;57052;55.602;38.096;2024-01-06T07:35:26;13.67;;;3.73;;
69779;SDS011;57052;55.602;38.096;2024-01-06T07:37:51;10.63;;;3.33;;
69779;SDS011;57052;55.602;38.096;2024-01-06T07:40:18;6.17;;;3.03;;
69779;SDS011;57052;55.602;38.096;2024-01-06T07:42:44;7.30;;;3.43;;
69779;SDS011;57052;55.602;38.096;2024-01-06T07:45:10;6.27;;;2.77;;
69779;SDS011;57052;55.602;38.096;2024-01-06T07:47:38;3.83;;;2.43;;
69779;SDS011;57052;55.602;38.096;2024-01-06T07:50:04;8.97;;;2.77;;
69779;SDS011;57052;55.602;38.096;2024-01-06T07:52:30;8.30;;;3.10;;
69779;SDS011;57052;55.602;38.096;2024-01-06T07:54:56;9.13;;;3.33;;
69779;SDS011;57052;55.602;38.096;2024-01-06T07:57:22;6.00;;;2.80;;
69779;SDS011;57052;55.602;38.096;2024-01-06T07:59:48;8.63;;;3.13;;
69779;SDS011;57052;55.602;38.096;2024-01-06T08:02:13;9.93;;;3.33;;
69779;SDS011;57052;55.602;38.096;2024-01-06T08:04:39;9.00;;;2.85;;
69779;SDS011;57052;55.602;38.096;2024-01-06T08:07:05;6.80;;;3.00;;
69779;SDS011;57052;55.602;38.096;2024-01-06T08:09:30;8.80;;;3.22;;
69779;SDS011;57052;55.602;38.096;2024-01-06T08:11:56;4.93;;;2.38;;
69779;SDS011;57052;55.602;38.096;2024-01-06T08:14:22;7.30;;;3.83;;
69779;SDS011;57052;55.602;38.096;2024-01-06T08:16:48;5.80;;;3.20;;
69779;SDS011;57052;55.602;38.096;2024-01-06T08:19:14;8.70;;;3.78;;
69779;SDS011;57052;55.602;38.096;2024-01-06T08:21:39;6.85;;;2.85;;
69779;SDS011;57052;55.602;38.096;2024-01-06T08:24:05;15.02;;;3.97;;
69779;SDS011;57052;55.602;38.096;2024-01-06T08:26:31;7.30;;;2.93;;
69779;SDS011;57052;55.602;38.096;2024-01-06T08:28:57;10.70;;;3.97;;
69779;SDS011;57052;55.602;38.096;2024-01-06T08:31:23;11.30;;;3.97;;
69779;SDS011;57052;55.602;38.096;2024-01-06T08:33:49;9.23;;;4.43;;
69779;SDS011;57052;55.602;38.096;2024-01-06T08:36:15;9.55;;;4.25;;
69779;SDS011;57052;55.602;38.096;2024-01-06T08:38:40;12.90;;;3.88;;
69779;SDS011;57052;55.602;38.096;2024-01-06T08:41:06;10.43;;;3.47;;
69779;SDS011;57052;55.602;38.096;2024-01-06T08:43:32;7.90;;;2.90;;
69779;SDS011;57052;55.602;38.096;2024-01-06T08:45:58;11.05;;;3.90;;
69779;SDS011;57052;55.602;38.096;2024-01-06T08:48:24;8.27;;;3.83;;
69779;SDS011;57052;55.602;38.096;2024-01-06T08:50:50;9.40;;;4.32;;
69779;SDS011;57052;55.602;38.096;2024-01-06T08:53:16;8.20;;;4.07;;
69779;SDS011;57052;55.602;38.096;2024-01-06T08:55:42;16.20;;;4.75;;
69779;SDS011;57052;55.602;38.096;2024-01-06T08:58:08;11.80;;;3.90;;
69779;SDS011;57052;55.602;38.096;2024-01-06T09:00:34;14.07;;;4.22;;
69779;SDS011;57052;55.602;38.096;2024-01-06T09:02:59;11.10;;;4.30;;
69779;SDS011;57052;55.602;38.096;2024-01-06T09:05:25;12.30;;;3.53;;
69779;SDS011;57052;55.602;38.096;2024-01-06T09:07:51;9.68;;;3.80;;
69779;SDS011;57052;55.602;38.096;2024-01-06T09:10:17;10.82;;;4.45;;
69779;SDS011;57052;55.602;38.096;2024-01-06T09:12:43;7.40;;;3.60;;
69779;SDS011;57052;55.602;38.096;2024-01-06T09:15:09;10.75;;;4.18;;
69779;SDS011;57052;55.602;38.096;2024-01-06T09:17:34;11.70;;;4.47;;
69779;SDS011;57052;55.602;38.096;2024-01-06T09:20:00;11.55;;;4.20;;
69779;SDS011;57052;55.602;38.096;2024-01-06T09:22:29;13.00;;;4.35;;
69779;SDS011;57052;55.602;38.096;2024-01-06T09:24:55;11.68;;;4.10;;
69779;SDS011;57052;55.602;38.096;2024-01-06T09:27:21;8.90;;;4.18;;
69779;SDS011;57052;55.602;38.096;2024-01-06T09:29:47;11.02;;;4.72;;
69779;SDS011;57052;55.602;38.096;2024-01-06T09:32:13;11.13;;;4.47;;
69779;SDS011;57052;55.602;38.096;2024-01-06T09:34:38;9.65;;;4.38;;
69779;SDS011;57052;55.602;38.096;2024-01-06T09:37:04;14.10;;;5.40;;
69779;SDS011;57052;55.602;38.096;2024-01-06T09:39:30;10.27;;;4.15;;
69779;SDS011;57052;55.602;38.096;2024-01-06T09:41:57;13.55;;;4.88;;
69779;SDS011;57052;55.602;38.096;2024-01-06T09:44:23;11.48;;;4.80;;
69779;SDS011;57052;55.602;38.096;2024-01-06T09:46:49;8.07;;;3.78;;
69779;SDS011;57052;55.602;38.096;2024-01-06T09:49:22;16.52;;;5.38;;
69779;SDS011;57052;55.602;38.096;2024-01-06T09:51:49;11.00;;;4.28;;
69779;SDS011;57052;55.602;38.096;2024-01-06T09:54:22;11.38;;;4.82;;
69779;SDS011;57052;55.602;38.096;2024-01-06T09:56:51;13.52;;;4.32;;
69779;SDS011;57052;55.602;38.096;2024-01-06T09:59:17;9.32;;;4.57;;
69779;SDS011;57052;55.602;38.096;2024-01-06T10:01:45;14.27;;;4.20;;
69779;SDS011;57052;55.602;38.096;2024-01-06T10:04:10;6.90;;;4.03;;
69779;SDS011;57052;55.602;38.096;2024-01-06T10:06:36;12.93;;;3.83;;
69779;SDS011;57052;55.602;38.096;2024-01-06T10:09:02;11.35;;;3.88;;
69779;SDS011;57052;55.602;38.096;2024-01-06T10:11:30;11.23;;;4.20;;
69779;SDS011;57052;55.602;38.096;2024-01-06T10:13:56;10.63;;;4.43;;
69779;SDS011;57052;55.602;38.096;2024-01-06T10:16:22;14.48;;;5.15;;
69779;SDS011;57052;55.602;38.096;2024-01-06T10:18:48;11.52;;;4.82;;
69779;SDS011;57052;55.602;38.096;2024-01-06T10:21:14;11.63;;;4.25;;
69779;SDS011;57052;55.602;38.096;2024-01-06T10:23:43;10.50;;;4.57;;
69779;SDS011;57052;55.602;38.096;2024-01-06T10:26:14;8.88;;;4.38;;
69779;SDS011;57052;55.602;38.096;2024-01-06T10:28:39;12.88;;;4.30;;
69779;SDS011;57052;55.602;38.096;2024-01-06T10:31:07;13.18;;;5.43;;
69779;SDS011;57052;55.602;38.096;2024-01-06T10:33:33;15.95;;;4.60;;
69779;SDS011;57052;55.602;38.096;2024-01-06T10:36:00;11.60;;;5.28;;
69779;SDS011;57052;55.602;38.096;2024-01-06T10:38:26;16.92;;;5.50;;
69779;SDS011;57052;55.602;38.096;2024-01-06T10:41:11;10.77;;;4.95;;
69779;SDS011;57052;55.602;38.096;2024-01-06T10:43:37;14.48;;;5.40;;
69779;SDS011;57052;55.602;38.096;2024-01-06T10:46:06;10.43;;;4.68;;
69779;SDS011;57052;55.602;38.096;2024-01-06T10:48:36;14.57;;;5.75;;
69779;SDS011;57052;55.602;38.096;2024-01-06T10:51:10;17.75;;;5.57;;
69779;SDS011;57052;55.602;38.096;2024-01-06T10:53:36;14.05;;;5.50;;
69779;SDS011;57052;55.602;38.096;2024-01-06T10:56:05;10.82;;;4.97;;
69779;SDS011;57052;55.602;38.096;2024-01-06T10:58:35;15.00;;;5.32;;
69779;SDS011;57052;55.602;38.096;2024-01-06T11:01:10;14.13;;;4.85;;
69779;SDS011;57052;55.602;38.096;2024-01-06T11:03:37;12.23;;;4.93;;
69779;SDS011;57052;55.602;38.096;2024-01-06T11:06:07;12.10;;;5.50;;
69779;SDS011;57052;55.602;38.096;2024-01-06T11:08:40;13.80;;;5.38;;
69779;SDS011;57052;55.602;38.096;2024-01-06T11:11:18;16.90;;;5.20;;
69779;SDS011;57052;55.602;38.096;2024-01-06T11:13:45;12.18;;;5.35;;
69779;SDS011;57052;55.602;38.096;2024-01-06T11:16:15;9.23;;;4.73;;
69779;SDS011;57052;55.602;38.096;2024-01-06T11:19:01;16.52;;;5.93;;
69779;SDS011;57052;55.602;38.096;2024-01-06T11:21:27;19.33;;;6.18;;
69779;SDS011;57052;55.602;38.096;2024-01-06T11:26:32;15.35;;;5.30;;
69779;SDS011;57052;55.602;38.096;2024-01-06T11:28:58;15.98;;;6.47;;
69779;SDS011;57052;55.602;38.096;2024-01-06T11:31:32;14.25;;;5.72;;
69779;SDS011;57052;55.602;38.096;2024-01-06T11:33:58;17.63;;;6.35;;
69779;SDS011;57052;55.602;38.096;2024-01-06T11:36:47;14.93;;;5.93;;
69779;SDS011;57052;55.602;38.096;2024-01-06T11:42:04;15.85;;;5.43;;
69779;SDS011;57052;55.602;38.096;2024-01-06T11:44:33;13.27;;;5.18;;
69779;SDS011;57052;55.602;38.096;2024-01-06T11:47:02;13.82;;;6.05;;
69779;SDS011;57052;55.602;38.096;2024-01-06T11:49:29;19.65;;;6.30;;
69779;SDS011;57052;55.602;38.096;2024-01-06T11:51:58;15.32;;;5.60;;
69779;SDS011;57052;55.602;38.096;2024-01-06T11:54:25;11.60;;;5.57;;
69779;SDS011;57052;55.602;38.096;2024-01-06T11:56:51;14.68;;;5.07;;
69779;SDS011;57052;55.602;38.096;2024-01-06T11:59:21;13.80;;;5.32;;
69779;SDS011;57052;55.602;38.096;2024-01-06T12:01:47;11.13;;;5.80;;
69779;SDS011;57052;55.602;38.096;2024-01-06T12:04:13;16.55;;;5.85;;
69779;SDS011;57052;55.602;38.096;2024-01-06T12:06:40;15.57;;;5.32;;
69779;SDS011;57052;55.602;38.096;2024-01-06T12:09:07;19.67;;;6.85;;
69779;SDS011;57052;55.602;38.096;2024-01-06T12:11:35;12.15;;;5.47;;
69779;SDS011;57052;55.602;38.096;2024-01-06T12:14:03;15.77;;;5.97;;
69779;SDS011;57052;55.602;38.096;2024-01-06T12:16:28;15.27;;;6.43;;
69779;SDS011;57052;55.602;38.096;2024-01-06T12:18:55;17.23;;;5.68;;
69779;SDS011;57052;55.602;38.096;2024-01-06T12:21:23;17.35;;;6.43;;
69779;SDS011;57052;55.602;38.096;2024-01-06T12:23:49;16.48;;;7.07;;
69779;SDS011;57052;55.602;38.096;2024-01-06T12:26:18;16.70;;;6.07;;
69779;SDS011;57052;55.602;38.096;2024-01-06T12:28:44;15.57;;;5.72;;
69779;SDS011;57052;55.602;38.096;2024-01-06T12:31:19;21.55;;;5.20;;
69779;SDS011;57052;55.602;38.096;2024-01-06T12:33:45;15.60;;;6.47;;
69779;SDS011;57052;55.602;38.096;2024-01-06T12:36:11;18.02;;;6.40;;
69779;SDS011;57052;55.602;38.096;2024-01-06T12:38:37;11.25;;;5.57;;
69779;SDS011;57052;55.602;38.096;2024-01-06T12:41:06;13.98;;;5.32;;
69779;SDS011;57052;55.602;38.096;2024-01-06T12:43:31;12.45;;;6.43;;
69779;SDS011;57052;55.602;38.096;2024-01-06T12:45:57;14.95;;;6.38;;
69779;SDS011;57052;55.602;38.096;2024-01-06T12:48:23;15.87;;;5.87;;
69779;SDS011;57052;55.602;38.096;2024-01-06T12:50:49;12.57;;;5.65;;
69779;SDS011;57052;55.602;38.096;2024-01-06T12:53:15;13.52;;;5.63;;
69779;SDS011;57052;55.602;38.096;2024-01-06T12:55:46;13.05;;;6.10;;
69779;SDS011;57052;55.602;38.096;2024-01-06T12:58:12;15.80;;;6.13;;
69779;SDS011;57052;55.602;38.096;2024-01-06T13:00:38;16.70;;;5.30;;
69779;SDS011;57052;55.602;38.096;2024-01-06T13:03:05;15.57;;;5.75;;
69779;SDS011;57052;55.602;38.096;2024-01-06T13:05:31;13.73;;;5.88;;
69779;SDS011;57052;55.602;38.096;2024-01-06T13:07:56;15.80;;;6.97;;
69779;SDS011;57052;55.602;38.096;2024-01-06T13:10:23;16.00;;;6.28;;
69779;SDS011;57052;55.602;38.096;2024-01-06T13:12:48;16.02;;;6.05;;
69779;SDS011;57052;55.602;38.096;2024-01-06T13:15:15;16.77;;;6.68;;
69779;SDS011;57052;55.602;38.096;2024-01-06T13:17:41;19.00;;;6.03;;
69779;SDS011;57052;55.602;38.096;2024-01-06T13:20:07;16.00;;;5.68;;
69779;SDS011;57052;55.602;38.096;2024-01-06T13:22:33;14.23;;;5.95;;
69779;SDS011;57052;55.602;38.096;2024-01-06T13:24:59;18.92;;;6.90;;
69779;SDS011;57052;55.602;38.096;2024-01-06T13:27:25;18.48;;;6.22;;
69779;SDS011;57052;55.602;38.096;2024-01-06T13:29:54;14.32;;;6.45;;
69779;SDS011;57052;55.602;38.096;2024-01-06T13:32:20;21.63;;;6.43;;
69779;SDS011;57052;55.602;38.096;2024-01-06T13:34:47;14.38;;;5.93;;
69779;SDS011;57052;55.602;38.096;2024-01-06T13:37:19;13.15;;;5.95;;
69779;SDS011;57052;55.602;38.096;2024-01-06T13:39:45;13.70;;;5.80;;
69779;SDS011;57052;55.602;38.096;2024-01-06T13:42:12;10.30;;;4.97;;
69779;SDS011;57052;55.602;38.096;2024-01-06T13:44:38;14.10;;;5.90;;
69779;SDS011;57052;55.602;38.096;2024-01-06T13:47:04;17.80;;;6.45;;
69779;SDS011;57052;55.602;38.096;2024-01-06T13:49:31;18.98;;;6.20;;
69779;SDS011;57052;55.602;38.096;2024-01-06T13:51:58;15.57;;;6.53;;
69779;SDS011;57052;55.602;38.096;2024-01-06T13:54:23;9.93;;;5.20;;
69779;SDS011;57052;55.602;38.096;2024-01-06T13:56:50;14.15;;;6.75;;
69779;SDS011;57052;55.602;38.096;2024-01-06T13:59:17;20.95;;;6.05;;
69779;SDS011;57052;55.602;38.096;2024-01-06T14:01:42;17.13;;;5.68;;
69779;SDS011;57052;55.602;38.096;2024-01-06T14:04:08;14.25;;;5.72;;
69779;SDS011;57052;55.602;38.096;2024-01-06T14:06:34;14.77;;;5.93;;
69779;SDS011;57052;55.602;38.096;2024-01-06T14:09:00;12.88;;;5.55;;
69779;SDS011;57052;55.602;38.096;2024-01-06T14:11:26;19.77;;;6.82;;
69779;SDS011;57052;55.602;38.096;2024-01-06T14:13:52;19.73;;;7.25;;
69779;SDS011;57052;55.602;38.096;2024-01-06T14:16:18;15.98;;;6.90;;
69779;SDS011;57052;55.602;38.096;2024-01-06T14:18:46;16.02;;;6.18;;
69779;SDS011;57052;55.602;38.096;2024-01-06T14:21:11;17.05;;;6.90;;
69779;SDS011;57052;55.602;38.096;2024-01-06T14:23:43;13.82;;;6.07;;
69779;SDS011;57052;55.602;38.096;2024-01-06T14:26:09;19.63;;;6.95;;
69779;SDS011;57052;55.602;38.096;2024-01-06T14:28:35;16.73;;;6.97;;
69779;SDS011;57052;55.602;38.096;2024-01-06T14:31:01;15.48;;;6.57;;